createdAt,value
2024-02-29T00:00:57.494Z,26.2
2024-02-29T00:01:59.833Z,26.2
2024-02-29T00:03:02.073Z,26.2
2024-02-29T00:04:04.060Z,26.3
2024-02-29T00:05:06.492Z,26.3
2024-02-29T00:06:08.503Z,26.3
2024-02-29T00:07:10.324Z,26.3
2024-02-29T00:08:12.534Z,26.3
2024-02-29T00:09:14.322Z,26.3
2024-02-29T00:10:16.077Z,26.3
2024-02-29T00:11:18.243Z,26.2
2024-02-29T00:12:20.468Z,26.3
2024-02-29T00:13:22.257Z,26.3
2024-02-29T00:14:24.048Z,26.3
2024-02-29T00:15:25.909Z,26.3
2024-02-29T00:16:27.868Z,26.3
2024-02-29T00:17:29.741Z,26.3
2024-02-29T00:18:31.586Z,26.3
2024-02-29T00:19:33.616Z,26.2
2024-02-29T00:20:35.404Z,26.2
2024-02-29T00:21:39.410Z,26.2
2024-02-29T00:22:43.941Z,26.2
2024-02-29T00:23:45.708Z,26.2
2024-02-29T00:24:47.452Z,26.2
2024-02-29T00:25:49.410Z,26.2
2024-02-29T00:26:51.138Z,26.2
2024-02-29T00:27:52.946Z,26.2
2024-02-29T00:28:54.963Z,26.2
2024-02-29T00:29:56.765Z,26.2
2024-02-29T00:30:58.669Z,26.2
2024-02-29T00:32:00.756Z,26.2
2024-02-29T00:33:02.561Z,26.2
2024-02-29T00:34:04.621Z,26.2
2024-02-29T00:35:06.950Z,26.2
2024-02-29T00:36:09.750Z,26.2
2024-02-29T00:37:12.687Z,26.2
2024-02-29T00:38:14.820Z,26.2
2024-02-29T00:39:16.575Z,26.2
2024-02-29T00:40:18.359Z,26.3
2024-02-29T00:41:20.766Z,26.3
2024-02-29T00:42:22.552Z,26.3
2024-02-29T00:43:24.348Z,26.2
2024-02-29T00:44:26.177Z,26.2
2024-02-29T00:45:28.184Z,26.2
2024-02-29T00:46:30.515Z,26.2
2024-02-29T00:47:32.307Z,26.2
2024-02-29T00:48:34.413Z,26.2
2024-02-29T00:49:36.624Z,26.2
2024-02-29T00:50:38.438Z,26.3
2024-02-29T00:51:40.247Z,26.2
2024-02-29T00:52:42.427Z,26.2
2024-02-29T00:53:44.170Z,26.2
2024-02-29T00:54:45.988Z,26.2
2024-02-29T00:55:47.869Z,26.2
2024-02-29T00:56:49.632Z,26.2
2024-02-29T00:57:51.469Z,26.2
2024-02-29T00:58:53.345Z,26.2
2024-02-29T00:59:58.260Z,26.2
2024-02-29T01:01:00.050Z,26.2
2024-02-29T01:02:02.451Z,26.2
2024-02-29T01:03:04.825Z,26.2
2024-02-29T01:04:06.584Z,26.2
2024-02-29T01:05:08.866Z,26.2
2024-02-29T01:06:10.773Z,26.2
2024-02-29T01:07:12.805Z,26.2
2024-02-29T01:08:15.218Z,26.2
2024-02-29T01:09:16.973Z,26.2
2024-02-29T01:10:18.826Z,26.2
2024-02-29T01:11:21.710Z,26.2
2024-02-29T01:12:23.748Z,26.2
2024-02-29T01:13:25.527Z,26.2
2024-02-29T01:14:27.325Z,26.2
2024-02-29T01:15:29.133Z,26.2
2024-02-29T01:16:31.448Z,26.1
2024-02-29T01:17:33.294Z,26.1
2024-02-29T01:18:35.592Z,26.1
2024-02-29T01:19:37.481Z,26.1
2024-02-29T01:20:39.295Z,26.1
2024-02-29T01:21:41.164Z,26.2
2024-02-29T01:22:43.104Z,26.1
2024-02-29T01:23:44.983Z,26.1
2024-02-29T01:24:46.787Z,26.1
2024-02-29T01:25:48.819Z,26.2
2024-02-29T01:26:50.643Z,26.2
2024-02-29T01:27:52.388Z,26.2
2024-02-29T01:28:54.555Z,26.2
2024-02-29T01:29:56.486Z,26.2
2024-02-29T01:30:58.482Z,26.2
2024-02-29T01:32:02.974Z,26.1
2024-02-29T01:33:31.804Z,26.2
2024-02-29T01:34:34.023Z,26.2
2024-02-29T01:35:35.874Z,26.2
2024-02-29T01:36:37.644Z,26.2
2024-02-29T01:37:39.669Z,26.2
2024-02-29T01:38:41.462Z,26.1
2024-02-29T01:39:43.401Z,26.2
2024-02-29T01:40:45.199Z,26.2
2024-02-29T01:41:46.976Z,26.2
2024-02-29T01:42:48.824Z,26.2
2024-02-29T01:43:50.915Z,26.2
2024-02-29T01:44:52.695Z,26.1
2024-02-29T01:45:54.538Z,26.1
2024-02-29T01:46:56.565Z,26.1
2024-02-29T01:47:58.413Z,26.1
2024-02-29T01:49:00.455Z,26.1
2024-02-29T01:50:02.408Z,26.1
2024-02-29T01:51:04.261Z,26.1
2024-02-29T01:52:06.076Z,26.1
2024-02-29T01:53:08.479Z,26.1
2024-02-29T01:54:10.319Z,26.1
2024-02-29T01:55:12.219Z,26.1
2024-02-29T01:56:14.726Z,26.1
2024-02-29T01:57:16.496Z,26.1
2024-02-29T01:58:18.273Z,26.1
2024-02-29T01:59:20.411Z,26.1
2024-02-29T02:00:22.218Z,26.1
2024-02-29T02:01:24.016Z,26.1
2024-02-29T02:02:26.344Z,26.1
2024-02-29T02:03:28.193Z,26.1
2024-02-29T02:04:30.003Z,26.1
2024-02-29T02:05:31.818Z,26.1
2024-02-29T02:06:33.640Z,26.1
2024-02-29T02:07:35.627Z,26.1
2024-02-29T02:08:37.537Z,26.1
2024-02-29T02:09:39.611Z,26.1
2024-02-29T02:10:41.979Z,26.1
2024-02-29T02:11:43.998Z,26.1
2024-02-29T02:12:45.850Z,26.1
2024-02-29T02:13:47.817Z,26.1
2024-02-29T02:14:49.602Z,26.1
2024-02-29T02:15:51.450Z,26.1
2024-02-29T02:16:53.759Z,26.1
2024-02-29T02:17:55.538Z,26.1
2024-02-29T02:18:57.597Z,26.1
2024-02-29T02:19:59.648Z,26.1
2024-02-29T02:21:01.563Z,26.1
2024-02-29T02:22:03.429Z,26.1
2024-02-29T02:23:05.687Z,26.1
2024-02-29T02:24:07.533Z,26.1
2024-02-29T02:25:09.676Z,26.1
2024-02-29T02:26:12.258Z,26.1
2024-02-29T02:27:14.004Z,26.1
2024-02-29T02:28:15.871Z,26.1
2024-02-29T02:29:17.833Z,26.1
2024-02-29T02:30:19.574Z,26.1
2024-02-29T02:31:21.329Z,26.1
2024-02-29T02:32:23.054Z,26.1
2024-02-29T02:33:24.811Z,26.1
2024-02-29T02:34:26.938Z,26
2024-02-29T02:35:28.709Z,26
2024-02-29T02:36:30.476Z,26
2024-02-29T02:37:32.497Z,26.1
2024-02-29T02:38:34.247Z,26.1
2024-02-29T02:39:36.054Z,26.1
2024-02-29T02:40:38.187Z,26.1
2024-02-29T02:41:40.209Z,26.1
2024-02-29T02:42:41.972Z,26.1
2024-02-29T02:43:43.888Z,26.1
2024-02-29T02:44:45.653Z,26.1
2024-02-29T02:45:47.463Z,26.1
2024-02-29T02:46:49.318Z,26.1
2024-02-29T02:47:51.111Z,26.1
2024-02-29T02:48:53.066Z,26.1
2024-02-29T02:49:55.240Z,26.1
2024-02-29T02:50:57.063Z,26.1
2024-02-29T02:51:59.060Z,26.1
2024-02-29T02:53:00.889Z,26.1
2024-02-29T02:54:02.703Z,26.1
2024-02-29T02:55:04.512Z,26.1
2024-02-29T02:56:06.748Z,26.1
2024-02-29T02:57:08.771Z,26.1
2024-02-29T02:58:10.696Z,26.1
2024-02-29T02:59:12.887Z,26.1
2024-02-29T03:00:14.672Z,26.1
2024-02-29T03:01:16.522Z,26.1
2024-02-29T03:02:18.671Z,26.1
2024-02-29T03:03:20.702Z,26.1
2024-02-29T03:04:22.496Z,26.1
2024-02-29T03:05:24.241Z,26.1
2024-02-29T03:06:26.291Z,26.1
2024-02-29T03:07:28.082Z,26.1
2024-02-29T03:08:29.941Z,26.1
2024-02-29T03:09:31.948Z,26.1
2024-02-29T03:10:34.410Z,26.1
2024-02-29T03:11:36.245Z,26.1
2024-02-29T03:12:38.438Z,26.1
2024-02-29T03:13:40.664Z,26
2024-02-29T03:14:42.422Z,26.1
2024-02-29T03:15:44.257Z,26.1
2024-02-29T03:16:46.303Z,26.1
2024-02-29T03:17:48.150Z,26.1
2024-02-29T03:18:50.331Z,26
2024-02-29T03:19:52.461Z,26
2024-02-29T03:20:54.197Z,26.1
2024-02-29T03:21:56.106Z,26.1
2024-02-29T03:22:58.203Z,26
2024-02-29T03:24:00.077Z,26
2024-02-29T03:25:01.891Z,26
2024-02-29T03:26:04.116Z,26
2024-02-29T03:27:05.901Z,26
2024-02-29T03:28:07.809Z,26
2024-02-29T03:29:10.155Z,26
2024-02-29T03:30:11.934Z,26
2024-02-29T03:31:13.841Z,26
2024-02-29T03:32:16.204Z,26
2024-02-29T03:33:17.945Z,26
2024-02-29T03:34:19.724Z,26
2024-02-29T03:35:21.979Z,26
2024-02-29T03:36:23.777Z,26
2024-02-29T03:37:25.569Z,26
2024-02-29T03:38:27.337Z,26
2024-02-29T03:39:29.276Z,26
2024-02-29T03:40:31.036Z,26
2024-02-29T03:41:32.850Z,26
2024-02-29T03:42:34.686Z,26
2024-02-29T03:43:36.665Z,26
2024-02-29T03:44:38.431Z,26
2024-02-29T03:45:40.239Z,26
2024-02-29T03:46:42.519Z,26
2024-02-29T03:47:44.327Z,26
2024-02-29T03:48:46.410Z,26
2024-02-29T03:49:48.364Z,26
2024-02-29T03:50:50.199Z,26
2024-02-29T03:51:52.056Z,26
2024-02-29T03:52:54.311Z,26
2024-02-29T03:53:56.101Z,26
2024-02-29T03:54:58.202Z,26
2024-02-29T03:56:00.221Z,26
2024-02-29T03:57:01.909Z,26
2024-02-29T03:58:03.810Z,26
2024-02-29T03:59:05.929Z,26
2024-02-29T04:00:07.664Z,26
2024-02-29T04:01:09.695Z,26
2024-02-29T04:02:12.021Z,26
2024-02-29T04:03:13.815Z,26
2024-02-29T04:04:15.637Z,26
2024-02-29T04:05:17.760Z,26
2024-02-29T04:06:19.552Z,26
2024-02-29T04:07:21.309Z,26
2024-02-29T04:08:23.181Z,26
2024-02-29T04:09:24.924Z,26
2024-02-29T04:10:26.689Z,26
2024-02-29T04:11:28.546Z,25.9
2024-02-29T04:12:30.519Z,25.8
2024-02-29T04:13:32.517Z,25.7
2024-02-29T04:14:34.315Z,25.6
2024-02-29T04:15:36.099Z,25.6
2024-02-29T04:16:38.258Z,25.5
2024-02-29T04:17:40.163Z,25.4
2024-02-29T04:18:42.352Z,25.4
2024-02-29T04:19:44.451Z,25.4
2024-02-29T04:20:46.261Z,25.4
2024-02-29T04:21:48.067Z,25.4
2024-02-29T04:22:50.528Z,25.4
2024-02-29T04:23:52.256Z,25.3
2024-02-29T04:24:54.061Z,25.3
2024-02-29T04:25:56.052Z,25.2
2024-02-29T04:26:57.804Z,25.2
2024-02-29T04:27:59.650Z,25.2
2024-02-29T04:29:02.036Z,25.2
2024-02-29T04:30:04.538Z,25.2
2024-02-29T04:31:06.330Z,25.1
2024-02-29T04:32:08.648Z,25.1
2024-02-29T04:33:10.492Z,25.1
2024-02-29T04:34:12.639Z,25.1
2024-02-29T04:35:14.790Z,25.1
2024-02-29T04:36:16.565Z,25
2024-02-29T04:37:18.413Z,25
2024-02-29T04:38:20.857Z,25
2024-02-29T04:39:22.659Z,25.1
2024-02-29T04:40:24.453Z,25.1
2024-02-29T04:41:26.722Z,25.1
2024-02-29T04:42:28.638Z,25
2024-02-29T04:43:30.371Z,25
2024-02-29T04:44:32.187Z,25.1
2024-02-29T04:45:34.057Z,25.1
2024-02-29T04:46:36.113Z,25.1
2024-02-29T04:47:37.946Z,25.1
2024-02-29T04:48:39.943Z,25.1
2024-02-29T04:49:41.897Z,25.1
2024-02-29T04:50:43.765Z,25.1
2024-02-29T04:51:45.588Z,25.1
2024-02-29T04:52:47.671Z,25.1
2024-02-29T04:53:49.410Z,25.2
2024-02-29T04:54:51.164Z,25.1
2024-02-29T04:55:53.007Z,25.1
2024-02-29T04:56:54.859Z,25.1
2024-02-29T04:57:56.619Z,25
2024-02-29T04:58:58.692Z,25.1
2024-02-29T05:00:00.732Z,25.1
2024-02-29T05:01:03.067Z,25.1
2024-02-29T05:02:07.217Z,25.2
2024-02-29T05:03:10.056Z,25.2
2024-02-29T05:04:11.914Z,25.2
2024-02-29T05:05:14.274Z,25.2
2024-02-29T05:06:16.489Z,25.2
2024-02-29T05:07:18.276Z,25.1
2024-02-29T05:08:20.677Z,25.1
2024-02-29T05:09:22.412Z,25.1
2024-02-29T05:10:24.211Z,25.1
2024-02-29T05:11:26.075Z,25.1
2024-02-29T05:12:27.942Z,25.1
2024-02-29T05:13:29.763Z,25.2
2024-02-29T05:14:31.468Z,25.2
2024-02-29T05:15:33.293Z,25.3
2024-02-29T05:16:35.427Z,25.3
2024-02-29T05:17:37.214Z,25.3
2024-02-29T05:18:39.217Z,25.3
2024-02-29T05:19:41.180Z,25.3
2024-02-29T05:20:42.928Z,25.3
2024-02-29T05:21:44.723Z,25.2
2024-02-29T05:22:46.850Z,25.1
2024-02-29T05:23:48.628Z,25.1
2024-02-29T05:24:50.476Z,25
2024-02-29T05:25:52.690Z,24.9
2024-02-29T05:26:54.463Z,24.9
2024-02-29T05:27:56.236Z,24.9
2024-02-29T05:28:58.314Z,24.9
2024-02-29T05:30:00.082Z,24.8
2024-02-29T05:31:01.959Z,24.8
2024-02-29T05:32:04.424Z,24.8
2024-02-29T05:33:06.445Z,24.8
2024-02-29T05:34:08.860Z,24.9
2024-02-29T05:35:10.946Z,24.9
2024-02-29T05:36:12.739Z,24.9
2024-02-29T05:37:14.560Z,25
2024-02-29T05:38:17.052Z,25.1
2024-02-29T05:39:18.797Z,25.1
2024-02-29T05:40:20.631Z,25.1
2024-02-29T05:41:23.016Z,25.2
2024-02-29T05:42:24.827Z,25.2
2024-02-29T05:43:26.648Z,25.2
2024-02-29T05:44:28.679Z,25.2
2024-02-29T05:45:30.477Z,25.3
2024-02-29T05:46:32.384Z,25.3
2024-02-29T05:47:34.330Z,25.3
2024-02-29T05:48:36.306Z,25.3
2024-02-29T05:49:38.734Z,25.4
2024-02-29T05:50:40.595Z,25.4
2024-02-29T05:51:42.406Z,25.4
2024-02-29T05:52:44.297Z,25.4
2024-02-29T05:53:46.063Z,25.4
2024-02-29T05:54:47.835Z,25.5
2024-02-29T05:55:49.897Z,25.5
2024-02-29T05:56:51.708Z,25.5
2024-02-29T05:57:53.552Z,25.5
2024-02-29T05:58:55.542Z,25.5
2024-02-29T05:59:57.327Z,25.5
2024-02-29T06:00:59.489Z,25.5
2024-02-29T06:02:02.680Z,25.5
2024-02-29T06:03:05.323Z,25.6
2024-02-29T06:04:07.118Z,25.6
2024-02-29T06:05:09.303Z,25.6
2024-02-29T06:06:11.296Z,25.6
2024-02-29T06:07:13.486Z,25.6
2024-02-29T06:08:17.202Z,25.6
2024-02-29T06:09:19.305Z,25.6
2024-02-29T06:10:21.156Z,25.6
2024-02-29T06:11:23.461Z,25.6
2024-02-29T06:12:25.552Z,25.6
2024-02-29T06:13:27.378Z,25.6
2024-02-29T06:14:29.094Z,25.6
2024-02-29T06:15:30.886Z,25.6
2024-02-29T06:16:32.597Z,25.6
2024-02-29T06:17:34.509Z,25.6
2024-02-29T06:18:36.811Z,25.5
2024-02-29T06:19:38.839Z,25.5
2024-02-29T06:20:40.627Z,25.5
2024-02-29T06:21:42.462Z,25.5
2024-02-29T06:22:44.801Z,25.5
2024-02-29T06:23:46.538Z,25.6
2024-02-29T06:24:48.413Z,25.6
2024-02-29T06:25:50.367Z,25.6
2024-02-29T06:26:52.405Z,25.6
2024-02-29T06:27:54.208Z,25.6
2024-02-29T06:28:56.269Z,25.6
2024-02-29T06:29:58.086Z,25.6
2024-02-29T06:31:00.070Z,25.5
2024-02-29T06:32:02.499Z,25.5
2024-02-29T06:33:04.590Z,25.5
2024-02-29T06:34:06.939Z,25.6
2024-02-29T06:35:09.080Z,25.6
2024-02-29T06:36:10.897Z,25.6
2024-02-29T06:37:12.913Z,25.7
2024-02-29T06:38:15.640Z,25.7
2024-02-29T06:39:17.389Z,25.7
2024-02-29T06:40:19.226Z,25.7
2024-02-29T06:41:21.278Z,25.8
2024-02-29T06:42:23.018Z,25.8
2024-02-29T06:43:24.815Z,25.8
2024-02-29T06:44:26.706Z,25.8
2024-02-29T06:45:28.489Z,25.8
2024-02-29T06:46:30.245Z,25.9
2024-02-29T06:47:32.001Z,25.9
2024-02-29T06:48:34.205Z,25.9
2024-02-29T06:49:36.981Z,26
2024-02-29T06:50:38.780Z,26
2024-02-29T06:51:40.566Z,26
2024-02-29T06:52:42.840Z,26
2024-02-29T06:53:44.628Z,26.1
2024-02-29T06:54:46.395Z,26.1
2024-02-29T06:55:48.441Z,26.1
2024-02-29T06:56:50.180Z,26
2024-02-29T06:57:52.909Z,26.1
2024-02-29T06:58:55.022Z,26.1
2024-02-29T06:59:56.816Z,26.1
2024-02-29T07:00:58.795Z,26.1
2024-02-29T07:02:01.015Z,26.1
2024-02-29T07:03:03.681Z,26.1
2024-02-29T07:04:05.747Z,26.1
2024-02-29T07:05:08.047Z,26.2
2024-02-29T07:06:10.010Z,26.2
2024-02-29T07:07:11.825Z,26.1
2024-02-29T07:08:14.523Z,26.2
2024-02-29T07:09:16.327Z,26.3
2024-02-29T07:10:18.120Z,26.3
2024-02-29T07:11:20.286Z,26.3
2024-02-29T07:12:22.312Z,26.3
2024-02-29T07:13:24.242Z,26.3
2024-02-29T07:14:26.332Z,26.3
2024-02-29T07:15:28.167Z,26.3
2024-02-29T07:16:29.995Z,26.4
2024-02-29T07:17:31.801Z,26.4
2024-02-29T07:18:33.749Z,26.4
2024-02-29T07:19:36.018Z,26.4
2024-02-29T07:20:37.907Z,26.4
2024-02-29T07:21:39.650Z,26.4
2024-02-29T07:22:41.787Z,26.4
2024-02-29T07:23:43.591Z,26.5
2024-02-29T07:24:45.410Z,26.5
2024-02-29T07:25:47.214Z,26.5
2024-02-29T07:26:48.976Z,26.5
2024-02-29T07:27:50.833Z,26.5
2024-02-29T07:28:52.985Z,26.5
2024-02-29T07:29:54.773Z,26.5
2024-02-29T07:30:56.521Z,26.5
2024-02-29T07:31:58.680Z,26.5
2024-02-29T07:33:00.603Z,26.5
2024-02-29T07:34:02.763Z,26.5
2024-02-29T07:35:04.877Z,26.5
2024-02-29T07:36:06.846Z,26.5
2024-02-29T07:37:08.681Z,26.6
2024-02-29T07:38:10.965Z,26.5
2024-02-29T07:39:12.783Z,26.5
2024-02-29T07:40:14.704Z,26.5
2024-02-29T07:41:16.874Z,26.5
2024-02-29T07:42:18.662Z,26.5
2024-02-29T07:43:20.584Z,26.6
2024-02-29T07:44:23.032Z,26.6
2024-02-29T07:45:24.787Z,26.6
2024-02-29T07:46:26.623Z,26.7
2024-02-29T07:47:28.698Z,26.7
2024-02-29T07:48:30.544Z,26.6
2024-02-29T07:49:32.536Z,26.5
2024-02-29T07:50:34.365Z,26.5
2024-02-29T07:51:36.311Z,26.6
2024-02-29T07:52:38.480Z,26.6
2024-02-29T07:53:40.221Z,26.6
2024-02-29T07:54:42.026Z,26.6
2024-02-29T07:55:43.935Z,26.6
2024-02-29T07:56:45.728Z,26.6
2024-02-29T07:57:47.547Z,26.6
2024-02-29T07:58:49.879Z,26.6
2024-02-29T07:59:51.630Z,26.6
2024-02-29T08:00:53.458Z,26.6
2024-02-29T08:01:55.921Z,26.6
2024-02-29T08:02:58.286Z,26.7
2024-02-29T08:04:00.127Z,26.7
2024-02-29T08:05:02.329Z,26.7
2024-02-29T08:06:04.429Z,26.7
2024-02-29T08:07:06.647Z,26.7
2024-02-29T08:08:08.726Z,26.6
2024-02-29T08:09:10.784Z,26.6
2024-02-29T08:10:13.017Z,26.6
2024-02-29T08:11:15.436Z,26.6
2024-02-29T08:12:17.376Z,26.7
2024-02-29T08:13:19.187Z,26.7
2024-02-29T08:14:21.603Z,26.7
2024-02-29T08:15:23.357Z,26.6
2024-02-29T08:16:25.259Z,26.6
2024-02-29T08:17:27.189Z,26.7
2024-02-29T08:18:29.310Z,26.7
2024-02-29T08:19:31.094Z,26.8
2024-02-29T08:20:32.851Z,26.8
2024-02-29T08:21:36.278Z,26.8
2024-02-29T08:22:42.906Z,26.8
2024-02-29T08:23:44.723Z,26.8
2024-02-29T08:24:46.483Z,26.8
2024-02-29T08:25:48.321Z,26.8
2024-02-29T08:26:50.135Z,26.8
2024-02-29T08:27:51.975Z,26.8
2024-02-29T08:28:53.970Z,26.8
2024-02-29T08:29:55.733Z,26.8
2024-02-29T08:30:57.481Z,26.8
2024-02-29T08:31:59.668Z,26.8
2024-02-29T08:33:01.985Z,26.8
2024-02-29T08:34:04.201Z,26.8
2024-02-29T08:35:06.528Z,26.7
2024-02-29T08:36:08.314Z,26.8
2024-02-29T08:37:10.169Z,26.8
2024-02-29T08:38:12.576Z,26.8
2024-02-29T08:39:14.417Z,26.8
2024-02-29T08:40:16.227Z,26.9
2024-02-29T08:41:18.339Z,26.8
2024-02-29T08:42:20.107Z,26.9
2024-02-29T08:43:21.876Z,26.9
2024-02-29T08:44:23.825Z,26.9
2024-02-29T08:45:26.097Z,26.8
2024-02-29T08:46:27.959Z,26.8
2024-02-29T08:47:30.147Z,26.8
2024-02-29T08:48:32.114Z,26.8
2024-02-29T08:49:33.945Z,26.8
2024-02-29T08:50:36.024Z,26.9
2024-02-29T08:51:37.841Z,26.9
2024-02-29T08:52:39.740Z,26.9
2024-02-29T08:53:41.582Z,26.9
2024-02-29T08:54:43.334Z,26.9
2024-02-29T08:55:45.237Z,26.9
2024-02-29T08:56:47.034Z,26.9
2024-02-29T08:57:48.844Z,26.9
2024-02-29T08:58:50.781Z,26.9
2024-02-29T08:59:52.525Z,26.9
2024-02-29T09:00:54.411Z,26.9
2024-02-29T09:01:56.662Z,26.9
2024-02-29T09:02:59.225Z,26.9
2024-02-29T09:04:01.022Z,27
2024-02-29T09:05:03.148Z,26.9
2024-02-29T09:06:05.305Z,26.9
2024-02-29T09:07:07.197Z,26.9
2024-02-29T09:08:09.177Z,27
2024-02-29T09:09:11.086Z,27
2024-02-29T09:10:13.023Z,27
2024-02-29T09:11:15.476Z,27.1
2024-02-29T09:12:17.597Z,27.1
2024-02-29T09:13:25.701Z,27
2024-02-29T09:14:38.097Z,27
2024-02-29T09:15:39.886Z,27
2024-02-29T09:16:41.741Z,27
2024-02-29T09:17:43.579Z,27
2024-02-29T09:18:45.685Z,27
2024-02-29T09:19:47.680Z,27
2024-02-29T09:20:49.481Z,26.9
2024-02-29T09:21:51.297Z,26.8
2024-02-29T09:22:53.350Z,26.7
2024-02-29T09:23:55.139Z,26.7
2024-02-29T09:24:57.117Z,26.6
2024-02-29T09:25:59.270Z,26.6
2024-02-29T09:27:01.212Z,26.5
2024-02-29T09:28:03.103Z,26.5
2024-02-29T09:29:05.531Z,26.5
2024-02-29T09:30:07.360Z,26.4
2024-02-29T09:31:09.388Z,26.4
2024-02-29T09:32:11.408Z,26.4
2024-02-29T09:33:13.319Z,26.3
2024-02-29T09:34:15.473Z,26.3
2024-02-29T09:35:17.431Z,26.3
2024-02-29T09:36:19.234Z,26.3
2024-02-29T09:37:21.047Z,26.3
2024-02-29T09:38:23.529Z,26.3
2024-02-29T09:39:25.489Z,26.2
2024-02-29T09:40:30.477Z,26.2
2024-02-29T09:42:11.642Z,26.2
2024-02-29T09:43:17.878Z,26.3
2024-02-29T09:44:20.709Z,26.2
2024-02-29T09:45:24.339Z,26.2
2024-02-29T09:46:27.609Z,26.2
2024-02-29T09:47:29.502Z,26.2
2024-02-29T09:48:31.897Z,26.2
2024-02-29T09:49:33.834Z,26.2
2024-02-29T09:50:35.616Z,26.1
2024-02-29T09:51:37.416Z,26.2
2024-02-29T09:52:39.307Z,26.1
2024-02-29T09:53:41.240Z,26.1
2024-02-29T09:54:43.156Z,26.1
2024-02-29T09:55:45.470Z,26.1
2024-02-29T09:56:47.475Z,26.2
2024-02-29T09:57:50.323Z,26.2
2024-02-29T09:58:52.152Z,26.1
2024-02-29T09:59:54.161Z,26.2
2024-02-29T10:00:55.948Z,26.2
2024-02-29T10:01:58.423Z,26.2
2024-02-29T10:03:01.190Z,26.2
2024-02-29T10:04:03.038Z,26.1
2024-02-29T10:06:07.054Z,26.1
2024-02-29T10:07:08.858Z,26.2
2024-02-29T10:08:10.861Z,26.1
2024-02-29T10:09:12.595Z,26.1
2024-02-29T10:10:14.535Z,26.2
2024-02-29T10:11:16.985Z,26.3
2024-02-29T10:12:19.481Z,26.3
2024-02-29T10:13:21.919Z,26.4
2024-02-29T10:14:24.443Z,26.5
2024-02-29T10:15:26.317Z,26.6
2024-02-29T10:16:29.239Z,26.6
2024-02-29T10:17:31.649Z,26.6
2024-02-29T10:18:33.495Z,26.6
2024-02-29T10:19:35.302Z,26.7
2024-02-29T10:20:37.126Z,26.8
2024-02-29T10:21:38.936Z,26.8
2024-02-29T10:22:40.854Z,26.9
2024-02-29T10:23:46.553Z,26.9
2024-02-29T10:24:48.372Z,26.9
2024-02-29T10:25:50.535Z,26.9
2024-02-29T10:26:52.399Z,26.9
2024-02-29T10:27:54.234Z,26.9
2024-02-29T10:28:56.079Z,26.9
2024-02-29T10:29:57.992Z,26.9
2024-02-29T10:30:59.992Z,26.9
2024-02-29T10:32:02.025Z,26.9
2024-02-29T10:33:03.831Z,27
2024-02-29T10:34:05.725Z,27
2024-02-29T10:35:07.661Z,27
2024-02-29T10:36:09.560Z,27
2024-02-29T10:37:11.408Z,27
2024-02-29T10:38:13.401Z,27
2024-02-29T10:39:15.214Z,27
2024-02-29T10:40:17.051Z,27.1
2024-02-29T10:41:19.489Z,27.1
2024-02-29T10:42:21.392Z,27.2
2024-02-29T10:43:23.280Z,27.2
2024-02-29T10:44:25.528Z,27.2
2024-02-29T10:45:27.717Z,27.2
2024-02-29T10:46:29.999Z,27.3
2024-02-29T10:47:31.825Z,27.3
2024-02-29T10:48:33.653Z,27.3
2024-02-29T10:49:35.487Z,27.4
2024-02-29T10:50:37.245Z,27.4
2024-02-29T10:51:39.018Z,27.4
2024-02-29T10:52:41.039Z,27.5
2024-02-29T10:53:42.814Z,27.5
2024-02-29T10:54:44.582Z,27.5
2024-02-29T10:55:46.485Z,27.5
2024-02-29T10:56:48.319Z,27.6
2024-02-29T10:57:50.203Z,27.6
2024-02-29T10:58:52.165Z,27.6
2024-02-29T10:59:53.960Z,27.6
2024-02-29T11:00:55.823Z,27.7
2024-02-29T11:01:58.197Z,27.7
2024-02-29T11:03:01.276Z,27.7
2024-02-29T11:04:03.056Z,27.7
2024-02-29T11:05:04.994Z,27.8
2024-02-29T11:06:06.863Z,27.8
2024-02-29T11:07:08.654Z,27.8
2024-02-29T11:08:10.706Z,27.8
2024-02-29T11:09:12.494Z,27.9
2024-02-29T11:10:14.322Z,27.9
2024-02-29T11:11:16.476Z,27.9
2024-02-29T11:12:19.035Z,27.9
2024-02-29T11:13:21.213Z,27.9
2024-02-29T11:14:23.774Z,27.9
2024-02-29T11:15:26.688Z,27.9
2024-02-29T11:16:29.755Z,28
2024-02-29T11:17:31.977Z,28
2024-02-29T11:18:34.451Z,28
2024-02-29T11:19:42.656Z,28
2024-02-29T11:20:59.463Z,28
2024-02-29T11:22:01.245Z,28
2024-02-29T11:23:06.402Z,28.1
2024-02-29T11:24:13.560Z,28.1
2024-02-29T11:25:15.390Z,28.1
2024-02-29T11:26:17.641Z,28.1
2024-02-29T11:27:19.471Z,28.1
2024-02-29T11:28:21.352Z,28.1
2024-02-29T11:29:23.680Z,28.1
2024-02-29T11:30:25.813Z,28.1
2024-02-29T11:31:28.011Z,28.1
2024-02-29T11:32:29.929Z,28.1
2024-02-29T11:33:32.214Z,28.1
2024-02-29T11:34:34.281Z,28.1
2024-02-29T11:35:36.593Z,28.1
2024-02-29T11:36:38.491Z,28.1
2024-02-29T11:37:40.719Z,28.1
2024-02-29T11:38:42.924Z,28.1
2024-02-29T11:39:44.742Z,28.1
2024-02-29T11:40:46.707Z,28.1
2024-02-29T11:41:48.476Z,28.1
2024-02-29T11:42:50.329Z,28.1
2024-02-29T11:43:52.282Z,28.1
2024-02-29T11:44:54.244Z,28.1
2024-02-29T11:45:56.004Z,28.2
2024-02-29T11:46:57.942Z,28.2
2024-02-29T11:47:59.813Z,28.1
2024-02-29T11:49:01.930Z,28.1
2024-02-29T11:50:04.046Z,28.2
2024-02-29T11:51:05.885Z,28.1
2024-02-29T11:52:07.711Z,28.1
2024-02-29T11:53:09.698Z,28
2024-02-29T11:54:11.498Z,28
2024-02-29T11:55:13.314Z,27.9
2024-02-29T11:56:16.423Z,27.8
2024-02-29T11:57:19.355Z,27.8
2024-02-29T11:58:21.260Z,27.9
2024-02-29T11:59:23.687Z,27.9
2024-02-29T12:00:25.934Z,27.9
2024-02-29T12:01:27.802Z,27.9
2024-02-29T12:02:30.063Z,27.8
2024-02-29T12:03:31.817Z,27.8
2024-02-29T12:04:33.697Z,27.7
2024-02-29T12:05:36.201Z,27.7
2024-02-29T12:06:38.359Z,27.6
2024-02-29T12:07:40.596Z,27.6
2024-02-29T12:08:42.346Z,27.5
2024-02-29T12:09:44.268Z,27.5
2024-02-29T12:10:49.048Z,27.5
2024-02-29T12:11:51.196Z,27.5
2024-02-29T12:12:53.005Z,27.5
2024-02-29T12:13:55.074Z,27.5
2024-02-29T12:14:56.950Z,27.5
2024-02-29T12:15:58.811Z,27.5
2024-02-29T12:17:00.897Z,27.4
2024-02-29T12:18:02.790Z,27.4
2024-02-29T12:19:05.081Z,27.4
2024-02-29T12:20:07.181Z,27.4
2024-02-29T12:21:09.004Z,27.4
2024-02-29T12:23:12.892Z,27.5
2024-02-29T12:24:14.661Z,27.6
2024-02-29T12:25:16.523Z,27.7
2024-02-29T12:26:18.626Z,27.7
2024-02-29T12:27:20.359Z,27.7
2024-02-29T12:28:22.295Z,27.7
2024-02-29T12:29:24.382Z,27.8
2024-02-29T12:30:26.513Z,27.9
2024-02-29T12:31:28.389Z,27.9
2024-02-29T12:32:30.443Z,28
2024-02-29T12:33:32.263Z,28
2024-02-29T12:34:35.046Z,28
2024-02-29T12:35:37.348Z,28
2024-02-29T12:36:39.343Z,28.1
2024-02-29T12:37:41.325Z,28.1
2024-02-29T12:38:43.167Z,28.1
2024-02-29T12:39:46.483Z,28.1
2024-02-29T12:40:49.271Z,28.1
2024-02-29T12:41:51.017Z,28.1
2024-02-29T12:42:52.922Z,28.1
2024-02-29T12:43:54.821Z,28.1
2024-02-29T12:44:56.609Z,28.1
2024-02-29T12:45:58.618Z,28.1
2024-02-29T12:47:01.094Z,28.1
2024-02-29T12:48:02.975Z,28.2
2024-02-29T12:49:05.159Z,28.2
2024-02-29T12:50:07.399Z,28.2
2024-02-29T12:51:09.168Z,28.2
2024-02-29T12:52:10.972Z,28.2
2024-02-29T12:53:13.006Z,28.2
2024-02-29T12:54:14.798Z,28.2
2024-02-29T12:55:16.651Z,28.2
2024-02-29T12:56:18.842Z,28.1
2024-02-29T12:57:20.807Z,28.1
2024-02-29T12:58:22.709Z,28.1
2024-02-29T12:59:25.221Z,28.1
2024-02-29T13:00:26.974Z,28.2
2024-02-29T13:01:29.046Z,28.3
2024-02-29T13:02:31.679Z,28.3
2024-02-29T13:03:33.451Z,28.3
2024-02-29T13:04:35.501Z,28.3
2024-02-29T13:05:38.404Z,28.3
2024-02-29T13:06:40.400Z,28.3
2024-02-29T13:07:42.598Z,28.3
2024-02-29T13:08:44.448Z,28.3
2024-02-29T13:09:46.289Z,28.3
2024-02-29T13:10:48.310Z,28.3
2024-02-29T13:11:50.180Z,28.3
2024-02-29T13:12:54.623Z,28.2
2024-02-29T13:14:12.854Z,28.3
2024-02-29T13:15:14.705Z,28.3
2024-02-29T13:16:16.533Z,28.3
2024-02-29T13:17:18.679Z,28.3
2024-02-29T13:18:20.943Z,28.3
2024-02-29T13:19:22.759Z,28.3
2024-02-29T13:20:24.851Z,28.4
2024-02-29T13:21:26.613Z,28.4
2024-02-29T13:22:28.459Z,28.3
2024-02-29T13:23:30.714Z,28.3
2024-02-29T13:24:32.545Z,28.3
2024-02-29T13:25:34.426Z,28.3
2024-02-29T13:26:36.953Z,28.3
2024-02-29T13:27:38.735Z,28.3
2024-02-29T13:28:40.757Z,28.3
2024-02-29T13:29:42.668Z,28.3
2024-02-29T13:30:44.484Z,28.3
2024-02-29T13:31:46.639Z,28.3
2024-02-29T13:32:48.724Z,28.3
2024-02-29T13:33:51.049Z,28.2
2024-02-29T13:34:53.194Z,28.1
2024-02-29T13:35:55.004Z,28.1
2024-02-29T13:36:56.864Z,28.2
2024-02-29T13:37:59.012Z,28.2
2024-02-29T13:39:00.773Z,28.2
2024-02-29T13:40:02.674Z,28.2
2024-02-29T13:41:04.755Z,28.3
2024-02-29T13:42:06.608Z,28.3
2024-02-29T13:43:08.477Z,28.3
2024-02-29T13:44:10.728Z,28.3
2024-02-29T13:45:12.545Z,28.3
2024-02-29T13:46:14.353Z,28.3
2024-02-29T13:47:16.617Z,28.3
2024-02-29T13:48:18.826Z,28.3
2024-02-29T13:49:22.381Z,28.3
2024-02-29T13:50:25.463Z,28.3
2024-02-29T13:51:27.301Z,28.3
2024-02-29T13:52:29.119Z,28.3
2024-02-29T13:53:31.261Z,28.4
2024-02-29T13:54:33.008Z,28.4
2024-02-29T13:55:34.860Z,28.4
2024-02-29T13:56:36.885Z,28.4